Michipicoten — CFG8060 — position and weather

sailwx.info

Track history (hours):
 
Tides and Currents Weather Stations Pressure Air Temp Water Temp Dewpoint Dewpoint Depression Visibility Wind Speed Wind Dir Waves Ship Positions

Michipicoten

Last reported at 2015-Aug-31 19:18 UTC. Time now 2015-Sep-01 22:22 UTC.
Position N 48°21' W 089°14'.

Length 213 m.

Type: Ship. MMSI: 316002501.

Date/timePositionNaut miles runAvg speedWind from/ knotsBaromVisibWave heightAir tempDewpointWater temp
2015-Aug-31 19:18N 48°21' W 089°14'0 0.0
2015-Aug-31 18:33N 48°21' W 089°14'  
2015-Aug-29 08:31N 45°59' W 083°53'0 0.0
2015-Aug-29 07:22N 45°59' W 083°53'0 0.1
2015-Aug-29 06:33N 45°59' W 083°53'0 0.0
2015-Aug-29 05:33N 45°59' W 083°53'0 0.0
2015-Aug-29 04:33N 45°59' W 083°53'0 0.0
2015-Aug-29 03:33N 45°59' W 083°53'0 0.0
2015-Aug-29 02:33N 45°59' W 083°53'0 0.0
2015-Aug-29 01:33N 45°59' W 083°53'0 0.0
2015-Aug-29 00:33N 45°59' W 083°53'0 0.0
2015-Aug-28 23:30N 45°59' W 083°53'0 0.1
2015-Aug-28 22:31N 45°59' W 083°53'  
2015-Aug-24 19:10N 45°59' W 083°53'0 0.4
2015-Aug-24 18:31N 45°59' W 083°53'0 0.0
2015-Aug-24 17:33N 45°59' W 083°53'0 0.0
2015-Aug-24 16:21N 45°59' W 083°53'0 0.0
2015-Aug-24 15:28N 45°59' W 083°53'0 0.0
2015-Aug-24 14:33N 45°59' W 083°53'0 0.0
2015-Aug-24 13:33N 45°59' W 083°53'0 0.0
2015-Aug-24 12:33N 45°59' W 083°53'0 0.0
2015-Aug-24 11:33N 45°59' W 083°53'0 0.0
2015-Aug-24 10:33N 45°59' W 083°53'0 0.0
2015-Aug-24 09:33N 45°59' W 083°53'0 0.0
2015-Aug-24 08:33N 45°59' W 083°53'0 0.0
2015-Aug-24 07:33N 45°59' W 083°53'7 7.0
2015-Aug-24 06:33N 46°04' W 084°00'132 6.6
2015-Aug-23 10:30N 46°35' W 087°06'106 6.2
2015-Aug-22 17:18N 46°27' W 084°32'8 8.6
2015-Aug-22 16:23N 46°31' W 084°23'0 0.0
2015-Aug-22 15:33N 46°31' W 084°23'0 0.0
2015-Aug-22 14:33N 46°31' W 084°23'0 0.0
2015-Aug-22 12:27N 46°31' W 084°23'18 6.1
2015-Aug-22 09:34N 46°38' W 084°46'  
Track history (hours):
 
Tides and Currents Weather Stations Pressure Air Temp Water Temp Dewpoint Dewpoint Depression Visibility Wind Speed Wind Dir Waves Ship Positions

Michipicoten

Last reported at 2015-Aug-31 19:18 UTC. Time now 2015-Sep-01 22:22 UTC.
Position N 48°21' W 089°14'.

Length 213 m.

Type: Ship. MMSI: 316002501.

Date/timePositionNaut miles runAvg speedWind from/ knotsBaromVisibWave heightAir tempDewpointWater temp
2015-Aug-31 19:18N 48°21' W 089°14'0 0.0
2015-Aug-31 18:33N 48°21' W 089°14'  
2015-Aug-29 08:31N 45°59' W 083°53'0 0.0
2015-Aug-29 07:22N 45°59' W 083°53'0 0.1
2015-Aug-29 06:33N 45°59' W 083°53'0 0.0
2015-Aug-29 05:33N 45°59' W 083°53'0 0.0
2015-Aug-29 04:33N 45°59' W 083°53'0 0.0
2015-Aug-29 03:33N 45°59' W 083°53'0 0.0
2015-Aug-29 02:33N 45°59' W 083°53'0 0.0
2015-Aug-29 01:33N 45°59' W 083°53'0 0.0
2015-Aug-29 00:33N 45°59' W 083°53'0 0.0
2015-Aug-28 23:30N 45°59' W 083°53'0 0.1
2015-Aug-28 22:31N 45°59' W 083°53'  
2015-Aug-24 19:10N 45°59' W 083°53'0 0.4
2015-Aug-24 18:31N 45°59' W 083°53'0 0.0
2015-Aug-24 17:33N 45°59' W 083°53'0 0.0
2015-Aug-24 16:21N 45°59' W 083°53'0 0.0
2015-Aug-24 15:28N 45°59' W 083°53'0 0.0
2015-Aug-24 14:33N 45°59' W 083°53'0 0.0
2015-Aug-24 13:33N 45°59' W 083°53'0 0.0
2015-Aug-24 12:33N 45°59' W 083°53'0 0.0
2015-Aug-24 11:33N 45°59' W 083°53'0 0.0
2015-Aug-24 10:33N 45°59' W 083°53'0 0.0
2015-Aug-24 09:33N 45°59' W 083°53'0 0.0
2015-Aug-24 08:33N 45°59' W 083°53'0 0.0
2015-Aug-24 07:33N 45°59' W 083°53'7 7.0
2015-Aug-24 06:33N 46°04' W 084°00'132 6.6
2015-Aug-23 10:30N 46°35' W 087°06'106 6.2
2015-Aug-22 17:18N 46°27' W 084°32'8 8.6
2015-Aug-22 16:23N 46°31' W 084°23'0 0.0
2015-Aug-22 15:33N 46°31' W 084°23'0 0.0
2015-Aug-22 14:33N 46°31' W 084°23'0 0.0
2015-Aug-22 12:27N 46°31' W 084°23'18 6.1
2015-Aug-22 09:34N 46°38' W 084°46'  

Dump ship's entire track history